Etusivu
METAR-TAF:

METAR-TAF

Lentoasemat :

Mendoza, Argentiina

Leveyspiiri: 32-50S, Pituuspiiri: 068-47W, korkeus merenpinnasta: 705 m

Tämänhetkinen sää

Tämä raportti tehtiin 33 minuuttia sitten, kello 01.00 UTC
Tuuli 3 kn koillisesta
Lämpötila 25°C
Kosteus 44%
Ilmanpaine 1017 hPa
Näkyvyys 10 km tai enemmän
Hajonneita pilviä 4000 ft:n korkeudessa

METAR: SAME 190100Z 05003KT 9999 BKN040 25/12 Q1017

Aika: 22:33 (01:33 UTC)

Sääennuste

Tämä raportti tehtiin 2 tuntia ja 33 minuuttia sitten, kello 23.00 UTC
Ennuste voimassa 19. päivästä klo 00 UTC - 19. päivään klo 24 UTC
Tuuli 5 kn kaakosta
Näkyvyys 10 km tai enemmän
Hajonneita pilviä 4000 ft:n korkeudessa
Muutamia pilviä 4500 ft:n korkeudessa, Cumulonimbus.
Tulossa
19. päivästä klo 10 UTC - 19. päivään klo 12 UTC
Tuuli 3 kn eri suunnista
Näkyvyys 10 km tai enemmän
Hajanaisia pilviä 4000 ft:n korkeudessa

TAF: SAME 182300Z 1900/1924 14005KT 9999 BKN040 FEW045CB TN21/1910Z TX35/1920Z BECMG 1910/1912 VRB03KT 9999 SCT040

Säähavainnot ja -ennusteet yli 4000 lentoasemalta (METAR- ja TAF-raportit).

Käytössä olevat sääasemat on merkitty karttaan keltaisilla ja punaisilla pisteillä.

Aseta hiiri pisteen päälle nähdäksesi sääaseman nimen.

Klikkaa sitten nähdäksesi säähavainnot ja -ennusteet.

Kartan vaihtaminen: klikkaa mustalla rastilla varustettuja vihreitä pisteitä, niin voit zoomata sisään; viivalla varustettua vihreää pistettä, niin voit zoomata ulos tai vihreitä nuolia, niin pääset viereisille kartoille.


METAR-TAF: